sensor_id;sensor_type;location;lat;lon;timestamp;temperature;humidity
3100;DHT22;1560;52.746;13.474;2023-05-07T00:01:05;8.20;99.90
3100;DHT22;1560;52.746;13.474;2023-05-07T00:03:41;8.30;99.90
3100;DHT22;1560;52.746;13.474;2023-05-07T00:08:55;8.30;99.90
3100;DHT22;1560;52.746;13.474;2023-05-07T00:11:25;8.30;99.90
3100;DHT22;1560;52.746;13.474;2023-05-07T00:16:46;8.30;99.90
3100;DHT22;1560;52.746;13.474;2023-05-07T00:19:17;8.30;99.90
3100;DHT22;1560;52.746;13.474;2023-05-07T00:21:46;8.30;99.90
3100;DHT22;1560;52.746;13.474;2023-05-07T00:24:15;8.30;99.90
3100;DHT22;1560;52.746;13.474;2023-05-07T00:26:44;8.20;99.90
3100;DHT22;1560;52.746;13.474;2023-05-07T00:29:12;8.30;99.90
3100;DHT22;1560;52.746;13.474;2023-05-07T00:31:42;8.30;99.90
3100;DHT22;1560;52.746;13.474;2023-05-07T00:34:14;8.30;99.90
3100;DHT22;1560;52.746;13.474;2023-05-07T00:36:46;8.30;99.90
3100;DHT22;1560;52.746;13.474;2023-05-07T00:39:25;8.30;99.90
3100;DHT22;1560;52.746;13.474;2023-05-07T00:41:54;8.30;99.90
3100;DHT22;1560;52.746;13.474;2023-05-07T00:44:23;8.30;99.90
3100;DHT22;1560;52.746;13.474;2023-05-07T00:46:52;8.30;99.90
3100;DHT22;1560;52.746;13.474;2023-05-07T00:52:02;8.30;99.90
3100;DHT22;1560;52.746;13.474;2023-05-07T00:54:31;8.30;99.90
3100;DHT22;1560;52.746;13.474;2023-05-07T00:57:02;8.30;99.90
3100;DHT22;1560;52.746;13.474;2023-05-07T01:02:09;8.30;99.90
3100;DHT22;1560;52.746;13.474;2023-05-07T01:04:38;8.30;99.90
3100;DHT22;1560;52.746;13.474;2023-05-07T01:07:08;8.30;99.90
3100;DHT22;1560;52.746;13.474;2023-05-07T01:09:41;8.30;99.90
3100;DHT22;1560;52.746;13.474;2023-05-07T01:12:11;8.20;99.90
3100;DHT22;1560;52.746;13.474;2023-05-07T01:14:40;8.30;99.90
3100;DHT22;1560;52.746;13.474;2023-05-07T01:17:10;8.30;99.90
3100;DHT22;1560;52.746;13.474;2023-05-07T01:19:38;8.30;99.90
3100;DHT22;1560;52.746;13.474;2023-05-07T01:22:09;8.20;99.90
3100;DHT22;1560;52.746;13.474;2023-05-07T01:24:38;8.10;99.90
3100;DHT22;1560;52.746;13.474;2023-05-07T01:27:07;8.20;99.90
3100;DHT22;1560;52.746;13.474;2023-05-07T01:29:36;8.10;99.90
3100;DHT22;1560;52.746;13.474;2023-05-07T01:34:47;8.10;99.90
3100;DHT22;1560;52.746;13.474;2023-05-07T01:37:17;8.10;99.90
3100;DHT22;1560;52.746;13.474;2023-05-07T01:39:47;8.10;99.90
3100;DHT22;1560;52.746;13.474;2023-05-07T01:44:54;8.10;99.90
3100;DHT22;1560;52.746;13.474;2023-05-07T01:47:25;8.00;99.90
3100;DHT22;1560;52.746;13.474;2023-05-07T01:49:55;8.00;99.90
3100;DHT22;1560;52.746;13.474;2023-05-07T01:55:03;8.10;99.90
3100;DHT22;1560;52.746;13.474;2023-05-07T02:00:11;8.10;99.90
3100;DHT22;1560;52.746;13.474;2023-05-07T02:05:20;8.10;99.90
3100;DHT22;1560;52.746;13.474;2023-05-07T02:10:28;8.20;99.90
3100;DHT22;1560;52.746;13.474;2023-05-07T02:13:00;8.10;99.90
3100;DHT22;1560;52.746;13.474;2023-05-07T02:15:29;8.10;99.90
3100;DHT22;1560;52.746;13.474;2023-05-07T02:20:39;8.20;99.90
3100;DHT22;1560;52.746;13.474;2023-05-07T02:23:11;8.20;99.90
3100;DHT22;1560;52.746;13.474;2023-05-07T02:25:40;8.10;99.90
3100;DHT22;1560;52.746;13.474;2023-05-07T02:28:09;8.10;99.90
3100;DHT22;1560;52.746;13.474;2023-05-07T02:33:20;8.00;99.90
3100;DHT22;1560;52.746;13.474;2023-05-07T02:35:49;8.10;99.90
3100;DHT22;1560;52.746;13.474;2023-05-07T02:51:26;8.00;99.90
3100;DHT22;1560;52.746;13.474;2023-05-07T02:53:55;8.00;99.90
3100;DHT22;1560;52.746;13.474;2023-05-07T03:09:41;7.90;99.90
3100;DHT22;1560;52.746;13.474;2023-05-07T03:12:10;8.00;99.90
3100;DHT22;1560;52.746;13.474;2023-05-07T03:14:39;7.90;99.90
3100;DHT22;1560;52.746;13.474;2023-05-07T03:17:12;7.90;99.90
3100;DHT22;1560;52.746;13.474;2023-05-07T03:19:38;7.90;99.90
3100;DHT22;1560;52.746;13.474;2023-05-07T03:22:07;7.90;99.90
3100;DHT22;1560;52.746;13.474;2023-05-07T03:24:36;7.90;99.90
3100;DHT22;1560;52.746;13.474;2023-05-07T03:27:05;7.80;99.90
3100;DHT22;1560;52.746;13.474;2023-05-07T03:32:16;7.90;99.90
3100;DHT22;1560;52.746;13.474;2023-05-07T03:34:45;7.90;99.90
3100;DHT22;1560;52.746;13.474;2023-05-07T03:37:15;7.90;99.90
3100;DHT22;1560;52.746;13.474;2023-05-07T03:39:44;7.90;99.90
3100;DHT22;1560;52.746;13.474;2023-05-07T03:42:14;7.90;99.90
3100;DHT22;1560;52.746;13.474;2023-05-07T03:44:44;7.90;99.90
3100;DHT22;1560;52.746;13.474;2023-05-07T03:47:15;7.90;99.90
3100;DHT22;1560;52.746;13.474;2023-05-07T03:49:44;7.90;99.90
3100;DHT22;1560;52.746;13.474;2023-05-07T03:54:55;7.90;99.90
3100;DHT22;1560;52.746;13.474;2023-05-07T03:57:24;7.90;99.90
3100;DHT22;1560;52.746;13.474;2023-05-07T03:59:53;7.90;99.90
3100;DHT22;1560;52.746;13.474;2023-05-07T04:02:23;7.90;99.90
3100;DHT22;1560;52.746;13.474;2023-05-07T04:04:53;8.00;99.90
3100;DHT22;1560;52.746;13.474;2023-05-07T04:07:25;8.00;99.90
3100;DHT22;1560;52.746;13.474;2023-05-07T04:09:54;8.00;99.90
3100;DHT22;1560;52.746;13.474;2023-05-07T04:15:05;8.00;99.90
3100;DHT22;1560;52.746;13.474;2023-05-07T04:17:34;7.90;99.90
3100;DHT22;1560;52.746;13.474;2023-05-07T04:20:08;7.90;99.90
3100;DHT22;1560;52.746;13.474;2023-05-07T04:22:38;8.00;99.90
3100;DHT22;1560;52.746;13.474;2023-05-07T04:25:09;8.00;99.90
3100;DHT22;1560;52.746;13.474;2023-05-07T04:30:16;7.90;99.90
3100;DHT22;1560;52.746;13.474;2023-05-07T04:32:48;7.90;99.90
3100;DHT22;1560;52.746;13.474;2023-05-07T04:35:17;7.90;99.90
3100;DHT22;1560;52.746;13.474;2023-05-07T04:37:46;7.80;99.90
3100;DHT22;1560;52.746;13.474;2023-05-07T04:40:16;7.80;99.90
3100;DHT22;1560;52.746;13.474;2023-05-07T04:45:29;7.90;99.90
3100;DHT22;1560;52.746;13.474;2023-05-07T04:47:59;7.90;99.90
3100;DHT22;1560;52.746;13.474;2023-05-07T04:53:06;8.00;99.90
3100;DHT22;1560;52.746;13.474;2023-05-07T04:55:35;8.00;99.90
3100;DHT22;1560;52.746;13.474;2023-05-07T04:58:04;8.00;99.90
3100;DHT22;1560;52.746;13.474;2023-05-07T05:00:33;8.10;99.90
3100;DHT22;1560;52.746;13.474;2023-05-07T05:03:03;8.10;99.90
3100;DHT22;1560;52.746;13.474;2023-05-07T05:05:32;8.10;99.90
3100;DHT22;1560;52.746;13.474;2023-05-07T05:10:41;8.10;99.90
3100;DHT22;1560;52.746;13.474;2023-05-07T05:13:11;8.10;99.90
3100;DHT22;1560;52.746;13.474;2023-05-07T05:18:20;8.10;99.90
3100;DHT22;1560;52.746;13.474;2023-05-07T05:23:27;8.00;99.90
3100;DHT22;1560;52.746;13.474;2023-05-07T05:25:57;7.90;99.90
3100;DHT22;1560;52.746;13.474;2023-05-07T05:28:26;8.00;99.90
3100;DHT22;1560;52.746;13.474;2023-05-07T05:33:35;8.10;99.90
3100;DHT22;1560;52.746;13.474;2023-05-07T05:36:07;8.20;99.90
3100;DHT22;1560;52.746;13.474;2023-05-07T05:38:37;8.10;99.90
3100;DHT22;1560;52.746;13.474;2023-05-07T05:41:06;8.10;99.90
3100;DHT22;1560;52.746;13.474;2023-05-07T05:56:37;8.10;99.90
3100;DHT22;1560;52.746;13.474;2023-05-07T05:59:07;8.30;99.90
3100;DHT22;1560;52.746;13.474;2023-05-07T06:04:17;8.40;99.90
3100;DHT22;1560;52.746;13.474;2023-05-07T06:09:29;8.50;99.90
3100;DHT22;1560;52.746;13.474;2023-05-07T06:11:58;8.60;99.90
3100;DHT22;1560;52.746;13.474;2023-05-07T06:17:10;8.80;99.90
3100;DHT22;1560;52.746;13.474;2023-05-07T06:19:39;9.00;99.90
3100;DHT22;1560;52.746;13.474;2023-05-07T06:22:10;9.00;99.90
3100;DHT22;1560;52.746;13.474;2023-05-07T06:27:28;9.20;99.90
3100;DHT22;1560;52.746;13.474;2023-05-07T06:29:57;9.40;99.90
3100;DHT22;1560;52.746;13.474;2023-05-07T06:32:26;9.50;99.90
3100;DHT22;1560;52.746;13.474;2023-05-07T06:34:55;9.60;99.90
3100;DHT22;1560;52.746;13.474;2023-05-07T06:37:24;9.70;99.90
3100;DHT22;1560;52.746;13.474;2023-05-07T06:45:15;10.00;99.90
3100;DHT22;1560;52.746;13.474;2023-05-07T06:47:44;10.10;99.90
3100;DHT22;1560;52.746;13.474;2023-05-07T06:50:14;10.20;99.90
3100;DHT22;1560;52.746;13.474;2023-05-07T07:06:30;9.90;99.90
3100;DHT22;1560;52.746;13.474;2023-05-07T07:09:00;10.10;99.90
3100;DHT22;1560;52.746;13.474;2023-05-07T07:11:29;10.30;99.90
3100;DHT22;1560;52.746;13.474;2023-05-07T07:13:58;10.50;99.90
3100;DHT22;1560;52.746;13.474;2023-05-07T07:16:27;10.60;99.90
3100;DHT22;1560;52.746;13.474;2023-05-07T07:18:57;10.70;99.90
3100;DHT22;1560;52.746;13.474;2023-05-07T07:21:26;10.90;99.90
3100;DHT22;1560;52.746;13.474;2023-05-07T07:23:56;11.00;99.90
3100;DHT22;1560;52.746;13.474;2023-05-07T07:29:03;11.30;99.90
3100;DHT22;1560;52.746;13.474;2023-05-07T07:31:33;11.40;99.90
3100;DHT22;1560;52.746;13.474;2023-05-07T07:34:05;11.40;99.90
3100;DHT22;1560;52.746;13.474;2023-05-07T07:36:34;11.50;99.90
3100;DHT22;1560;52.746;13.474;2023-05-07T07:39:03;11.50;99.90
3100;DHT22;1560;52.746;13.474;2023-05-07T07:41:32;11.60;99.90
3100;DHT22;1560;52.746;13.474;2023-05-07T07:44:02;11.60;90.20
3100;DHT22;1560;52.746;13.474;2023-05-07T07:46:36;11.70;80.20
3100;DHT22;1560;52.746;13.474;2023-05-07T07:49:09;11.70;5.60
3100;DHT22;1560;52.746;13.474;2023-05-07T07:54:28;11.90;23.10
3100;DHT22;1560;52.746;13.474;2023-05-07T07:56:59;12.00;1.00
3100;DHT22;1560;52.746;13.474;2023-05-07T07:59:29;12.20;1.00
3100;DHT22;1560;52.746;13.474;2023-05-07T08:02:00;12.20;1.00
3100;DHT22;1560;52.746;13.474;2023-05-07T08:04:29;12.30;1.00
3100;DHT22;1560;52.746;13.474;2023-05-07T08:06:59;12.40;16.80
3100;DHT22;1560;52.746;13.474;2023-05-07T08:12:07;12.70;20.40
3100;DHT22;1560;52.746;13.474;2023-05-07T08:14:39;12.80;1.00
3100;DHT22;1560;52.746;13.474;2023-05-07T08:17:08;12.90;1.00
3100;DHT22;1560;52.746;13.474;2023-05-07T08:22:17;13.20;1.00
3100;DHT22;1560;52.746;13.474;2023-05-07T08:24:46;12.90;1.00
3100;DHT22;1560;52.746;13.474;2023-05-07T08:27:15;13.00;1.00
3100;DHT22;1560;52.746;13.474;2023-05-07T08:29:49;12.80;1.00
3100;DHT22;1560;52.746;13.474;2023-05-07T08:32:19;12.90;1.00
3100;DHT22;1560;52.746;13.474;2023-05-07T08:34:48;13.00;1.00
3100;DHT22;1560;52.746;13.474;2023-05-07T08:37:24;13.00;1.00
3100;DHT22;1560;52.746;13.474;2023-05-07T08:39:53;13.20;1.00
3100;DHT22;1560;52.746;13.474;2023-05-07T08:42:24;13.20;40.90
3100;DHT22;1560;52.746;13.474;2023-05-07T08:44:54;13.40;1.00
3100;DHT22;1560;52.746;13.474;2023-05-07T08:47:28;13.10;1.00
3100;DHT22;1560;52.746;13.474;2023-05-07T08:52:36;13.10;18.40
3100;DHT22;1560;52.746;13.474;2023-05-07T08:58:05;13.20;1.00
3100;DHT22;1560;52.746;13.474;2023-05-07T09:00:31;12.90;23.90
3100;DHT22;1560;52.746;13.474;2023-05-07T09:03:04;13.20;1.00
3100;DHT22;1560;52.746;13.474;2023-05-07T09:05:38;13.30;1.00
3100;DHT22;1560;52.746;13.474;2023-05-07T09:08:08;13.50;1.00
3100;DHT22;1560;52.746;13.474;2023-05-07T09:13:20;14.30;1.00
3100;DHT22;1560;52.746;13.474;2023-05-07T09:15:49;14.70;1.00
3100;DHT22;1560;52.746;13.474;2023-05-07T09:18:18;14.80;99.90
3100;DHT22;1560;52.746;13.474;2023-05-07T09:20:52;14.50;1.00
3100;DHT22;1560;52.746;13.474;2023-05-07T09:23:22;14.50;1.00
3100;DHT22;1560;52.746;13.474;2023-05-07T09:28:40;14.40;99.90
3100;DHT22;1560;52.746;13.474;2023-05-07T09:31:10;14.60;99.90
3100;DHT22;1560;52.746;13.474;2023-05-07T09:39:09;15.40;1.00
3100;DHT22;1560;52.746;13.474;2023-05-07T09:41:44;15.40;99.90
3100;DHT22;1560;52.746;13.474;2023-05-07T09:44:14;15.20;99.90
3100;DHT22;1560;52.746;13.474;2023-05-07T09:49:23;15.10;99.90
3100;DHT22;1560;52.746;13.474;2023-05-07T09:51:53;15.00;99.90
3100;DHT22;1560;52.746;13.474;2023-05-07T09:54:25;14.30;99.90
3100;DHT22;1560;52.746;13.474;2023-05-07T09:57:04;14.50;1.00
3100;DHT22;1560;52.746;13.474;2023-05-07T09:59:37;14.80;99.90
3100;DHT22;1560;52.746;13.474;2023-05-07T10:05:09;15.00;1.00
3100;DHT22;1560;52.746;13.474;2023-05-07T10:07:49;15.00;99.90
3100;DHT22;1560;52.746;13.474;2023-05-07T10:10:19;14.90;1.00
3100;DHT22;1560;52.746;13.474;2023-05-07T10:12:48;15.20;99.90
3100;DHT22;1560;52.746;13.474;2023-05-07T10:15:19;15.60;99.90
3100;DHT22;1560;52.746;13.474;2023-05-07T10:17:49;15.90;1.00
3100;DHT22;1560;52.746;13.474;2023-05-07T10:20:19;16.00;1.00
3100;DHT22;1560;52.746;13.474;2023-05-07T10:25:34;15.30;99.90
3100;DHT22;1560;52.746;13.474;2023-05-07T10:28:16;15.20;1.00
3100;DHT22;1560;52.746;13.474;2023-05-07T10:31:04;15.10;1.00
3100;DHT22;1560;52.746;13.474;2023-05-07T10:36:52;14.70;99.90
3100;DHT22;1560;52.746;13.474;2023-05-07T10:39:23;14.60;99.90
3100;DHT22;1560;52.746;13.474;2023-05-07T10:44:31;14.20;1.00
3100;DHT22;1560;52.746;13.474;2023-05-07T10:47:09;14.10;99.90
3100;DHT22;1560;52.746;13.474;2023-05-07T10:56:26;14.20;1.00
3100;DHT22;1560;52.746;13.474;2023-05-07T10:58:56;14.30;99.90
3100;DHT22;1560;52.746;13.474;2023-05-07T11:01:54;14.40;99.90
3100;DHT22;1560;52.746;13.474;2023-05-07T11:04:24;14.50;99.90
3100;DHT22;1560;52.746;13.474;2023-05-07T11:10:09;14.90;14.60
3100;DHT22;1560;52.746;13.474;2023-05-07T11:12:53;15.10;1.00
3100;DHT22;1560;52.746;13.474;2023-05-07T11:15:51;15.30;16.60
3100;DHT22;1560;52.746;13.474;2023-05-07T11:21:48;15.60;99.90
3100;DHT22;1560;52.746;13.474;2023-05-07T11:37:39;15.90;91.40
3100;DHT22;1560;52.746;13.474;2023-05-07T11:42:51;15.70;1.00
3100;DHT22;1560;52.746;13.474;2023-05-07T11:45:48;15.50;99.90
3100;DHT22;1560;52.746;13.474;2023-05-07T11:51:00;15.50;99.90
3100;DHT22;1560;52.746;13.474;2023-05-07T11:53:40;15.90;37.90
3100;DHT22;1560;52.746;13.474;2023-05-07T11:56:17;16.60;1.00
3100;DHT22;1560;52.746;13.474;2023-05-07T12:12:03;17.40;99.90
3100;DHT22;1560;52.746;13.474;2023-05-07T12:14:38;16.60;1.00
3100;DHT22;1560;52.746;13.474;2023-05-07T12:19:48;17.30;1.00
3100;DHT22;1560;52.746;13.474;2023-05-07T12:22:17;17.40;1.00
3100;DHT22;1560;52.746;13.474;2023-05-07T12:24:47;16.70;99.90
3100;DHT22;1560;52.746;13.474;2023-05-07T12:29:56;16.60;1.00
3100;DHT22;1560;52.746;13.474;2023-05-07T12:32:25;16.70;1.00
3100;DHT22;1560;52.746;13.474;2023-05-07T12:35:25;16.60;99.90
3100;DHT22;1560;52.746;13.474;2023-05-07T12:37:56;16.40;72.80
3100;DHT22;1560;52.746;13.474;2023-05-07T12:43:18;16.60;45.70
3100;DHT22;1560;52.746;13.474;2023-05-07T12:45:49;16.60;99.90
3100;DHT22;1560;52.746;13.474;2023-05-07T12:48:22;16.70;99.90
3100;DHT22;1560;52.746;13.474;2023-05-07T12:53:39;17.40;1.00
3100;DHT22;1560;52.746;13.474;2023-05-07T12:56:15;17.20;48.20
3100;DHT22;1560;52.746;13.474;2023-05-07T13:01:29;17.50;1.00
3100;DHT22;1560;52.746;13.474;2023-05-07T13:06:40;17.70;99.90
3100;DHT22;1560;52.746;13.474;2023-05-07T13:11:50;17.20;99.90
3100;DHT22;1560;52.746;13.474;2023-05-07T13:14:22;17.10;1.00
3100;DHT22;1560;52.746;13.474;2023-05-07T13:16:53;16.90;99.90
3100;DHT22;1560;52.746;13.474;2023-05-07T13:22:18;16.70;1.00
3100;DHT22;1560;52.746;13.474;2023-05-07T13:27:26;16.30;99.90
3100;DHT22;1560;52.746;13.474;2023-05-07T13:29:55;16.20;1.00
3100;DHT22;1560;52.746;13.474;2023-05-07T13:32:26;16.30;99.90
3100;DHT22;1560;52.746;13.474;2023-05-07T13:34:56;16.40;99.90
3100;DHT22;1560;52.746;13.474;2023-05-07T13:37:25;16.60;99.90
3100;DHT22;1560;52.746;13.474;2023-05-07T13:39:57;16.80;99.90
3100;DHT22;1560;52.746;13.474;2023-05-07T13:42:26;16.70;99.90
3100;DHT22;1560;52.746;13.474;2023-05-07T13:44:58;16.80;99.90
3100;DHT22;1560;52.746;13.474;2023-05-07T13:47:31;16.90;99.90
3100;DHT22;1560;52.746;13.474;2023-05-07T13:52:45;16.80;1.00
3100;DHT22;1560;52.746;13.474;2023-05-07T13:55:17;16.70;1.00
3100;DHT22;1560;52.746;13.474;2023-05-07T14:00:44;16.50;99.90
3100;DHT22;1560;52.746;13.474;2023-05-07T14:05:53;16.30;25.40
3100;DHT22;1560;52.746;13.474;2023-05-07T14:08:22;16.10;99.90
3100;DHT22;1560;52.746;13.474;2023-05-07T14:11:05;16.00;99.90
3100;DHT22;1560;52.746;13.474;2023-05-07T14:16:14;15.50;99.90
3100;DHT22;1560;52.746;13.474;2023-05-07T14:21:33;15.50;1.00
3100;DHT22;1560;52.746;13.474;2023-05-07T14:24:03;15.70;99.90
3100;DHT22;1560;52.746;13.474;2023-05-07T14:26:32;15.70;58.50
3100;DHT22;1560;52.746;13.474;2023-05-07T14:29:04;15.70;99.90
3100;DHT22;1560;52.746;13.474;2023-05-07T14:31:44;15.70;99.90
3100;DHT22;1560;52.746;13.474;2023-05-07T14:34:13;15.70;99.90
3100;DHT22;1560;52.746;13.474;2023-05-07T14:39:20;15.70;99.90
3100;DHT22;1560;52.746;13.474;2023-05-07T14:41:49;15.70;34.00
3100;DHT22;1560;52.746;13.474;2023-05-07T14:44:18;15.70;99.90
3100;DHT22;1560;52.746;13.474;2023-05-07T14:46:48;15.70;99.90
3100;DHT22;1560;52.746;13.474;2023-05-07T14:49:18;15.80;1.00
3100;DHT22;1560;52.746;13.474;2023-05-07T14:51:51;15.70;1.00
3100;DHT22;1560;52.746;13.474;2023-05-07T14:54:24;15.50;1.00
3100;DHT22;1560;52.746;13.474;2023-05-07T14:56:53;15.40;99.90
3100;DHT22;1560;52.746;13.474;2023-05-07T14:59:22;15.50;99.90
3100;DHT22;1560;52.746;13.474;2023-05-07T15:01:58;15.50;99.90
3100;DHT22;1560;52.746;13.474;2023-05-07T15:04:27;15.50;1.00
3100;DHT22;1560;52.746;13.474;2023-05-07T15:06:56;15.60;99.90
3100;DHT22;1560;52.746;13.474;2023-05-07T15:09:28;15.70;1.00
3100;DHT22;1560;52.746;13.474;2023-05-07T15:14:38;16.00;99.90
3100;DHT22;1560;52.746;13.474;2023-05-07T15:19:47;16.10;1.00
3100;DHT22;1560;52.746;13.474;2023-05-07T15:22:16;16.00;99.90
3100;DHT22;1560;52.746;13.474;2023-05-07T15:24:45;15.90;1.00
3100;DHT22;1560;52.746;13.474;2023-05-07T15:30:01;15.70;1.00
3100;DHT22;1560;52.746;13.474;2023-05-07T15:32:33;15.70;1.00
3100;DHT22;1560;52.746;13.474;2023-05-07T15:35:06;15.70;99.90
3100;DHT22;1560;52.746;13.474;2023-05-07T15:37:35;15.70;99.90
3100;DHT22;1560;52.746;13.474;2023-05-07T15:40:06;15.70;99.90
3100;DHT22;1560;52.746;13.474;2023-05-07T15:42:35;15.70;1.00
3100;DHT22;1560;52.746;13.474;2023-05-07T15:45:07;15.60;1.00
3100;DHT22;1560;52.746;13.474;2023-05-07T15:47:37;15.40;99.90
3100;DHT22;1560;52.746;13.474;2023-05-07T15:52:45;15.30;99.90
3100;DHT22;1560;52.746;13.474;2023-05-07T15:55:17;15.40;1.00
3100;DHT22;1560;52.746;13.474;2023-05-07T15:57:47;15.40;99.90
3100;DHT22;1560;52.746;13.474;2023-05-07T16:02:58;15.50;1.00
3100;DHT22;1560;52.746;13.474;2023-05-07T16:05:30;15.50;1.00
3100;DHT22;1560;52.746;13.474;2023-05-07T16:08:04;15.60;99.90
3100;DHT22;1560;52.746;13.474;2023-05-07T16:10:36;15.70;1.00
3100;DHT22;1560;52.746;13.474;2023-05-07T16:15:42;15.60;99.90
3100;DHT22;1560;52.746;13.474;2023-05-07T16:18:14;15.40;1.00
3100;DHT22;1560;52.746;13.474;2023-05-07T16:26:28;15.10;99.90
3100;DHT22;1560;52.746;13.474;2023-05-07T16:29:02;15.20;99.90
3100;DHT22;1560;52.746;13.474;2023-05-07T16:31:34;15.30;99.90
3100;DHT22;1560;52.746;13.474;2023-05-07T16:36:41;15.30;20.80
3100;DHT22;1560;52.746;13.474;2023-05-07T16:39:10;15.30;1.00
3100;DHT22;1560;52.746;13.474;2023-05-07T16:41:40;15.30;99.90
3100;DHT22;1560;52.746;13.474;2023-05-07T16:44:16;15.10;99.90
3100;DHT22;1560;52.746;13.474;2023-05-07T16:46:46;15.00;99.90
3100;DHT22;1560;52.746;13.474;2023-05-07T16:52:09;14.60;1.00
3100;DHT22;1560;52.746;13.474;2023-05-07T16:54:43;14.60;99.90
3100;DHT22;1560;52.746;13.474;2023-05-07T16:57:15;14.60;99.90
3100;DHT22;1560;52.746;13.474;2023-05-07T16:59:57;14.70;99.90
3100;DHT22;1560;52.746;13.474;2023-05-07T17:02:24;14.70;1.00
3100;DHT22;1560;52.746;13.474;2023-05-07T17:07:43;14.70;1.00
3100;DHT22;1560;52.746;13.474;2023-05-07T17:10:12;14.60;99.90
3100;DHT22;1560;52.746;13.474;2023-05-07T17:12:44;14.60;99.90
3100;DHT22;1560;52.746;13.474;2023-05-07T17:15:16;14.40;99.90
3100;DHT22;1560;52.746;13.474;2023-05-07T17:17:45;14.00;99.90
3100;DHT22;1560;52.746;13.474;2023-05-07T17:22:56;13.90;1.00
3100;DHT22;1560;52.746;13.474;2023-05-07T17:25:25;14.00;99.90
3100;DHT22;1560;52.746;13.474;2023-05-07T17:30:34;13.90;1.00
3100;DHT22;1560;52.746;13.474;2023-05-07T17:33:03;14.00;1.00
3100;DHT22;1560;52.746;13.474;2023-05-07T17:35:32;14.00;99.90
3100;DHT22;1560;52.746;13.474;2023-05-07T17:38:03;14.00;85.90
3100;DHT22;1560;52.746;13.474;2023-05-07T17:40:32;14.00;99.90
3100;DHT22;1560;52.746;13.474;2023-05-07T17:43:01;13.90;99.90
3100;DHT22;1560;52.746;13.474;2023-05-07T17:48:16;13.90;79.30
3100;DHT22;1560;52.746;13.474;2023-05-07T17:50:48;13.60;99.90
3100;DHT22;1560;52.746;13.474;2023-05-07T17:53:20;13.50;1.00
3100;DHT22;1560;52.746;13.474;2023-05-07T17:55:52;13.40;99.90
3100;DHT22;1560;52.746;13.474;2023-05-07T18:01:06;13.50;99.90
3100;DHT22;1560;52.746;13.474;2023-05-07T18:03:48;13.40;14.80
3100;DHT22;1560;52.746;13.474;2023-05-07T18:06:18;13.30;2.90
3100;DHT22;1560;52.746;13.474;2023-05-07T18:08:51;13.40;99.90
3100;DHT22;1560;52.746;13.474;2023-05-07T18:11:23;13.40;99.90
3100;DHT22;1560;52.746;13.474;2023-05-07T18:14:01;13.30;1.00
3100;DHT22;1560;52.746;13.474;2023-05-07T18:16:36;13.30;20.50
3100;DHT22;1560;52.746;13.474;2023-05-07T18:21:44;13.20;1.00
3100;DHT22;1560;52.746;13.474;2023-05-07T18:24:16;13.20;1.00
3100;DHT22;1560;52.746;13.474;2023-05-07T18:26:47;13.10;1.00
3100;DHT22;1560;52.746;13.474;2023-05-07T18:29:18;13.10;99.90
3100;DHT22;1560;52.746;13.474;2023-05-07T18:34:44;13.00;1.00
3100;DHT22;1560;52.746;13.474;2023-05-07T18:40:17;12.50;99.90
3100;DHT22;1560;52.746;13.474;2023-05-07T18:42:47;12.50;99.90
3100;DHT22;1560;52.746;13.474;2023-05-07T18:45:17;12.30;17.00
3100;DHT22;1560;52.746;13.474;2023-05-07T18:47:49;12.20;99.90
3100;DHT22;1560;52.746;13.474;2023-05-07T18:50:18;12.20;1.00
3100;DHT22;1560;52.746;13.474;2023-05-07T18:52:48;12.30;1.00
3100;DHT22;1560;52.746;13.474;2023-05-07T18:55:17;12.30;1.00
3100;DHT22;1560;52.746;13.474;2023-05-07T18:57:48;12.20;99.90
3100;DHT22;1560;52.746;13.474;2023-05-07T19:00:18;12.10;1.00
3100;DHT22;1560;52.746;13.474;2023-05-07T19:02:47;12.20;1.00
3100;DHT22;1560;52.746;13.474;2023-05-07T19:05:17;12.10;29.40
3100;DHT22;1560;52.746;13.474;2023-05-07T19:07:46;11.90;1.00
3100;DHT22;1560;52.746;13.474;2023-05-07T19:10:15;11.90;1.00
3100;DHT22;1560;52.746;13.474;2023-05-07T19:12:51;12.00;99.90
3100;DHT22;1560;52.746;13.474;2023-05-07T19:15:24;11.80;6.20
3100;DHT22;1560;52.746;13.474;2023-05-07T19:17:54;11.80;99.90
3100;DHT22;1560;52.746;13.474;2023-05-07T19:23:02;11.70;99.90
3100;DHT22;1560;52.746;13.474;2023-05-07T19:25:33;11.70;99.90
3100;DHT22;1560;52.746;13.474;2023-05-07T19:28:02;11.80;99.90
3100;DHT22;1560;52.746;13.474;2023-05-07T19:33:17;11.60;99.90
3100;DHT22;1560;52.746;13.474;2023-05-07T19:35:47;11.50;1.00
3100;DHT22;1560;52.746;13.474;2023-05-07T19:38:16;11.50;1.00
3100;DHT22;1560;52.746;13.474;2023-05-07T19:40:46;11.60;99.90
3100;DHT22;1560;52.746;13.474;2023-05-07T19:45:58;11.50;99.90
3100;DHT22;1560;52.746;13.474;2023-05-07T19:48:27;11.50;99.90
3100;DHT22;1560;52.746;13.474;2023-05-07T19:50:56;11.40;99.90
3100;DHT22;1560;52.746;13.474;2023-05-07T19:53:30;11.40;99.90
3100;DHT22;1560;52.746;13.474;2023-05-07T19:56:06;11.50;1.00
3100;DHT22;1560;52.746;13.474;2023-05-07T19:58:44;11.50;1.00
3100;DHT22;1560;52.746;13.474;2023-05-07T20:01:18;11.50;1.00
3100;DHT22;1560;52.746;13.474;2023-05-07T20:03:54;11.60;1.00
3100;DHT22;1560;52.746;13.474;2023-05-07T20:06:27;11.50;1.00
3100;DHT22;1560;52.746;13.474;2023-05-07T20:09:00;11.40;1.00
3100;DHT22;1560;52.746;13.474;2023-05-07T20:11:32;11.40;1.00
3100;DHT22;1560;52.746;13.474;2023-05-07T20:14:08;11.30;1.00
3100;DHT22;1560;52.746;13.474;2023-05-07T20:29:57;11.20;1.00
3100;DHT22;1560;52.746;13.474;2023-05-07T20:32:27;11.00;1.00
3100;DHT22;1560;52.746;13.474;2023-05-07T20:34:57;11.00;1.00
3100;DHT22;1560;52.746;13.474;2023-05-07T20:37:37;10.90;1.00
3100;DHT22;1560;52.746;13.474;2023-05-07T20:40:10;10.90;1.00
3100;DHT22;1560;52.746;13.474;2023-05-07T20:42:44;10.90;1.00
3100;DHT22;1560;52.746;13.474;2023-05-07T20:45:18;10.80;1.00
3100;DHT22;1560;52.746;13.474;2023-05-07T20:50:35;10.60;1.00
3100;DHT22;1560;52.746;13.474;2023-05-07T20:53:06;10.50;1.00
3100;DHT22;1560;52.746;13.474;2023-05-07T20:55:37;10.50;3.00
3100;DHT22;1560;52.746;13.474;2023-05-07T21:00:45;10.30;21.50
3100;DHT22;1560;52.746;13.474;2023-05-07T21:03:17;10.30;17.90
3100;DHT22;1560;52.746;13.474;2023-05-07T21:05:51;10.30;16.40
3100;DHT22;1560;52.746;13.474;2023-05-07T21:08:22;10.30;24.00
3100;DHT22;1560;52.746;13.474;2023-05-07T21:10:54;10.30;20.00
3100;DHT22;1560;52.746;13.474;2023-05-07T21:16:06;10.20;30.00
3100;DHT22;1560;52.746;13.474;2023-05-07T21:18:38;10.20;31.60
3100;DHT22;1560;52.746;13.474;2023-05-07T21:21:09;10.20;36.70
3100;DHT22;1560;52.746;13.474;2023-05-07T21:23:38;10.10;41.50
3100;DHT22;1560;52.746;13.474;2023-05-07T21:26:09;10.00;45.90
3100;DHT22;1560;52.746;13.474;2023-05-07T21:28:39;9.90;50.60
3100;DHT22;1560;52.746;13.474;2023-05-07T21:44:23;9.90;73.60
3100;DHT22;1560;52.746;13.474;2023-05-07T21:49:35;9.70;99.90
3100;DHT22;1560;52.746;13.474;2023-05-07T21:52:05;9.70;99.90
3100;DHT22;1560;52.746;13.474;2023-05-07T21:54:39;9.70;99.90
3100;DHT22;1560;52.746;13.474;2023-05-07T21:57:10;9.70;99.90
3100;DHT22;1560;52.746;13.474;2023-05-07T21:59:39;9.80;99.90
3100;DHT22;1560;52.746;13.474;2023-05-07T22:02:09;9.70;99.90
3100;DHT22;1560;52.746;13.474;2023-05-07T22:04:40;9.70;99.90
3100;DHT22;1560;52.746;13.474;2023-05-07T22:07:38;9.70;99.90
3100;DHT22;1560;52.746;13.474;2023-05-07T22:10:09;9.70;99.90